Time;durP1;ratioP1;P1;durP2;ratioP2;P2;SDS_P1;SDS_P2;PMS_P1;PMS_P2;Temp;Humidity;BMP_temperature;BMP_pressure;BME280_temperature;BME280_humidity;BME280_pressure;Samples;Min_cycle;Max_cycle;Signal;HPM_P1;HPM_P2
2023/12/17 00:01:05;;;;;;;42.03;32.92;;;16.90;99.90;;;;;;4948410;29;20090;-72
2023/12/17 00:03:31;;;;;;;40.25;33.15;;;16.30;99.90;;;;;;4931676;29;20086;-71
2023/12/17 00:05:56;;;;;;;41.78;32.33;;;16.20;99.90;;;;;;4948438;29;20079;-71
2023/12/17 00:08:22;;;;;;;41.63;31.98;;;15.80;99.90;;;;;;4948176;29;20039;-70
2023/12/17 00:10:52;;;;;;;50.45;32.50;;;15.70;99.90;;;;;;4948287;29;20529;-72
2023/12/17 00:13:18;;;;;;;43.42;33.17;;;15.50;99.90;;;;;;4947968;29;20078;-73
2023/12/17 00:15:44;;;;;;;36.42;30.58;;;15.60;99.90;;;;;;4947854;29;20054;-71
2023/12/17 00:18:12;;;;;;;47.00;31.35;;;16.00;99.90;;;;;;4948090;29;20042;-71
2023/12/17 00:20:37;;;;;;;45.42;32.20;;;15.90;99.90;;;;;;4948242;29;21115;-71
2023/12/17 00:23:04;;;;;;;48.20;33.75;;;16.00;99.90;;;;;;4947700;29;20047;-72
2023/12/17 00:25:30;;;;;;;46.85;33.78;;;16.60;99.90;;;;;;4948523;29;20146;-71
2023/12/17 00:27:56;;;;;;;46.63;32.63;;;15.90;99.90;;;;;;4948015;29;20051;-71
2023/12/17 00:30:22;;;;;;;42.72;31.88;;;16.50;99.90;;;;;;4947684;29;20050;-71
2023/12/17 00:32:48;;;;;;;47.10;32.88;;;17.00;99.90;;;;;;4947577;29;20046;-72
2023/12/17 00:35:13;;;;;;;44.88;34.45;;;15.80;99.90;;;;;;4947718;29;20482;-72
2023/12/17 00:37:39;;;;;;;40.22;32.25;;;16.90;99.90;;;;;;4947543;29;20045;-70
2023/12/17 00:40:06;;;;;;;46.53;33.22;;;16.10;99.90;;;;;;4947707;29;20077;-72
2023/12/17 00:42:32;;;;;;;42.80;31.23;;;15.70;99.90;;;;;;4946982;29;20043;-71
2023/12/17 00:44:58;;;;;;;38.80;33.58;;;17.10;99.90;;;;;;4947421;29;20043;-71
2023/12/17 00:47:23;;;;;;;44.30;31.90;;;16.50;99.90;;;;;;4947407;29;20091;-72
2023/12/17 00:49:49;;;;;;;40.75;30.48;;;15.60;99.90;;;;;;4946930;28;20110;-71
2023/12/17 00:52:15;;;;;;;40.55;31.77;;;15.90;99.90;;;;;;4947384;29;20054;-71
2023/12/17 00:54:40;;;;;;;44.97;32.22;;;15.80;99.90;;;;;;4947227;29;20039;-72
2023/12/17 00:57:06;;;;;;;47.42;33.20;;;16.40;99.90;;;;;;4931868;29;20051;-65
2023/12/17 00:59:31;;;;;;;51.65;35.13;;;15.90;99.90;;;;;;4947580;29;20097;-67
2023/12/17 01:01:57;;;;;;;47.85;34.05;;;15.50;99.90;;;;;;4947156;29;20051;-65
2023/12/17 01:04:22;;;;;;;49.58;34.75;;;16.80;99.90;;;;;;4946429;28;20047;-66
2023/12/17 01:06:48;;;;;;;43.72;34.65;;;16.00;99.90;;;;;;4948015;29;20066;-67
2023/12/17 01:09:13;;;;;;;43.47;32.53;;;16.50;99.90;;;;;;4947360;29;20069;-67
2023/12/17 01:11:39;;;;;;;45.05;32.42;;;16.70;99.90;;;;;;4947790;29;20066;-66
2023/12/17 01:14:05;;;;;;;44.40;33.70;;;16.80;99.90;;;;;;4947461;29;20066;-66
2023/12/17 01:16:30;;;;;;;42.63;32.60;;;16.00;99.90;;;;;;4948985;29;20046;-67
2023/12/17 01:18:56;;;;;;;46.42;34.38;;;15.80;99.90;;;;;;4948921;28;20035;-66
2023/12/17 01:21:22;;;;;;;48.63;33.97;;;15.60;99.90;;;;;;4946996;29;20135;-67
2023/12/17 01:23:47;;;;;;;44.03;31.13;;;16.40;99.90;;;;;;4947232;29;20035;-65
2023/12/17 01:26:22;;;;;;;44.22;31.38;;;16.10;99.90;;;;;;4947718;29;20054;-66
2023/12/17 01:28:49;;;;;;;43.50;32.38;;;15.20;99.90;;;;;;4948493;28;20051;-67
2023/12/17 01:31:15;;;;;;;52.95;35.42;;;15.30;99.90;;;;;;4947190;29;20043;-66
2023/12/17 01:33:40;;;;;;;42.55;33.50;;;15.80;99.90;;;;;;4944370;29;20039;-66
2023/12/17 01:36:06;;;;;;;42.08;34.88;;;17.00;99.90;;;;;;4947210;29;20429;-66
2023/12/17 01:38:32;;;;;;;47.58;33.80;;;15.70;99.90;;;;;;4946596;29;20497;-66
2023/12/17 01:40:57;;;;;;;44.22;33.92;;;16.70;99.90;;;;;;4948294;28;20089;-65
2023/12/17 01:43:23;;;;;;;51.92;35.88;;;16.30;99.90;;;;;;4947752;29;20421;-65
2023/12/17 01:45:50;;;;;;;44.60;32.40;;;16.50;99.90;;;;;;4948501;29;20225;-66
2023/12/17 01:48:15;;;;;;;39.88;33.90;;;16.10;99.90;;;;;;4948468;28;20051;-66
2023/12/17 01:50:42;;;;;;;40.80;34.45;;;15.30;99.90;;;;;;4962168;28;20074;-67
2023/12/17 01:53:08;;;;;;;41.60;34.63;;;15.60;99.90;;;;;;4945982;29;20075;-67
2023/12/17 01:55:33;;;;;;;44.10;34.30;;;16.50;99.90;;;;;;4946648;29;20039;-66
2023/12/17 01:58:00;;;;;;;39.55;32.03;;;15.30;99.90;;;;;;4946368;29;20128;-67
2023/12/17 02:00:25;;;;;;;39.58;34.60;;;15.40;99.90;;;;;;4948411;29;20486;-66
2023/12/17 02:02:51;;;;;;;41.10;34.90;;;16.50;99.90;;;;;;4946895;29;20057;-67
2023/12/17 02:05:17;;;;;;;43.78;35.60;;;15.20;99.90;;;;;;4946379;29;20039;-66
2023/12/17 02:07:43;;;;;;;41.38;34.50;;;16.80;99.90;;;;;;4946669;29;20468;-66
2023/12/17 02:10:09;;;;;;;49.78;35.40;;;17.00;99.90;;;;;;4946591;29;20046;-67
2023/12/17 02:12:34;;;;;;;40.00;34.75;;;16.30;99.90;;;;;;4947871;28;20035;-65
2023/12/17 02:15:00;;;;;;;36.78;32.67;;;16.00;99.90;;;;;;4948179;28;20109;-66
2023/12/17 02:17:30;;;;;;;36.60;31.80;;;16.80;99.90;;;;;;4950641;28;20776;-66
2023/12/17 02:19:57;;;;;;;43.03;31.88;;;15.80;99.90;;;;;;4951706;28;20043;-67
2023/12/17 02:22:24;;;;;;;41.22;33.92;;;16.00;99.90;;;;;;4950030;29;20039;-67
2023/12/17 02:24:51;;;;;;;48.42;34.55;;;16.60;99.90;;;;;;4950038;29;20047;-65
2023/12/17 02:27:21;;;;;;;41.38;33.35;;;15.20;99.90;;;;;;4951817;29;20560;-66
2023/12/17 02:29:47;;;;;;;38.90;32.88;;;15.40;99.90;;;;;;4949957;29;20066;-67
2023/12/17 02:32:14;;;;;;;38.53;31.55;;;16.20;99.90;;;;;;4952293;28;20374;-67
2023/12/17 02:34:40;;;;;;;46.38;33.58;;;15.40;99.90;;;;;;4934046;29;20043;-66
2023/12/17 02:37:05;;;;;;;38.42;33.53;;;16.10;99.90;;;;;;4950250;29;20082;-67
2023/12/17 02:39:31;;;;;;;40.22;32.47;;;16.00;99.90;;;;;;4950089;29;20167;-68
2023/12/17 02:41:58;;;;;;;40.17;32.92;;;15.30;99.90;;;;;;4949833;29;20106;-66
2023/12/17 02:44:24;;;;;;;38.70;33.42;;;15.10;99.90;;;;;;4951353;28;20494;-66
2023/12/17 02:46:49;;;;;;;42.53;33.10;;;15.70;99.90;;;;;;4950749;29;20122;-67
2023/12/17 02:49:15;;;;;;;46.17;32.88;;;15.10;99.90;;;;;;4949889;28;20051;-65
2023/12/17 02:51:40;;;;;;;42.67;33.33;;;16.20;99.90;;;;;;4949896;29;20102;-67
2023/12/17 02:54:07;;;;;;;46.10;35.60;;;16.40;99.90;;;;;;4949918;29;20039;-67
2023/12/17 02:56:40;;;;;;;41.58;35.40;;;16.80;99.90;;;;;;4950157;29;20035;-66
2023/12/17 02:59:08;;;;;;;40.33;34.10;;;15.80;99.90;;;;;;4950327;29;20039;-66
2023/12/17 03:01:33;;;;;;;36.83;32.78;;;16.50;99.90;;;;;;4950253;29;20039;-67
2023/12/17 03:03:59;;;;;;;38.53;34.28;;;16.00;99.90;;;;;;4949532;29;20045;-66
2023/12/17 03:06:24;;;;;;;39.67;32.75;;;15.60;99.90;;;;;;4949847;29;20711;-67
2023/12/17 03:08:50;;;;;;;43.00;33.83;;;16.80;99.90;;;;;;4933519;29;20126;-67
2023/12/17 03:11:15;;;;;;;39.00;33.15;;;15.50;99.90;;;;;;4949509;29;20043;-66
2023/12/17 03:13:41;;;;;;;37.97;32.63;;;16.80;99.90;;;;;;4950973;29;20110;-66
2023/12/17 03:16:10;;;;;;;42.35;33.40;;;16.00;99.90;;;;;;4950147;29;20108;-72
2023/12/17 03:18:35;;;;;;;39.53;33.38;;;16.10;99.90;;;;;;4948773;29;20480;-72
2023/12/17 03:21:05;;;;;;;45.40;32.33;;;16.50;99.90;;;;;;4948650;29;20134;-71
2023/12/17 03:23:31;;;;;;;41.00;33.08;;;15.40;99.90;;;;;;4948255;29;20054;-72
2023/12/17 03:25:57;;;;;;;38.10;34.05;;;15.70;99.90;;;;;;4947596;28;20043;-72
2023/12/17 03:28:22;;;;;;;40.60;32.55;;;15.30;99.90;;;;;;4948075;29;20053;-72
2023/12/17 03:30:48;;;;;;;42.90;32.65;;;16.10;99.90;;;;;;4949188;29;20402;-71
2023/12/17 03:33:14;;;;;;;38.72;33.83;;;16.10;99.90;;;;;;4932891;29;20047;-72
2023/12/17 03:35:39;;;;;;;42.08;31.52;;;16.30;99.90;;;;;;4948638;29;20129;-71
2023/12/17 03:38:06;;;;;;;41.20;32.28;;;16.20;99.90;;;;;;4948206;29;20051;-72
2023/12/17 03:40:32;;;;;;;39.00;32.83;;;16.30;99.90;;;;;;4949145;29;20536;-70
2023/12/17 03:42:58;;;;;;;38.47;34.35;;;15.90;99.90;;;;;;4947941;29;20126;-72
2023/12/17 03:45:23;;;;;;;43.83;34.10;;;16.30;99.90;;;;;;4948714;29;20205;-72
2023/12/17 03:47:49;;;;;;;47.22;34.42;;;15.20;99.90;;;;;;4948755;29;20067;-71
2023/12/17 03:50:16;;;;;;;46.20;34.47;;;16.80;99.90;;;;;;4948481;28;20199;-72
2023/12/17 03:52:43;;;;;;;38.28;32.60;;;16.20;99.90;;;;;;4948277;29;20046;-71
2023/12/17 03:55:09;;;;;;;43.30;33.20;;;16.60;99.90;;;;;;4947953;29;20384;-71
2023/12/17 03:57:34;;;;;;;38.08;33.88;;;15.30;99.90;;;;;;4948003;29;20046;-71
2023/12/17 04:00:01;;;;;;;46.85;31.65;;;15.80;99.90;;;;;;4948249;29;20051;-71
2023/12/17 04:02:27;;;;;;;38.08;32.42;;;15.10;99.90;;;;;;4948024;29;20078;-71
2023/12/17 04:04:53;;;;;;;40.50;34.92;;;15.80;99.90;;;;;;4947654;29;20113;-71
2023/12/17 04:07:18;;;;;;;41.75;34.38;;;15.00;99.90;;;;;;4948559;29;20051;-70
2023/12/17 04:09:44;;;;;;;44.85;35.40;;;15.90;99.90;;;;;;4947772;29;20043;-72
2023/12/17 04:12:10;;;;;;;40.42;35.05;;;16.20;99.90;;;;;;4948511;29;20054;-72
2023/12/17 04:14:36;;;;;;;40.78;34.20;;;14.90;99.90;;;;;;4947666;29;20142;-71
2023/12/17 04:17:01;;;;;;;39.38;33.05;;;16.10;99.90;;;;;;4948145;29;20055;-71
2023/12/17 04:19:27;;;;;;;40.42;34.85;;;15.90;99.90;;;;;;4948033;29;20114;-71
2023/12/17 04:21:52;;;;;;;40.72;34.38;;;16.00;99.90;;;;;;4947951;29;20043;-71
2023/12/17 04:24:18;;;;;;;42.13;33.35;;;14.80;99.90;;;;;;4947769;29;20079;-71
2023/12/17 04:26:44;;;;;;;39.50;32.55;;;16.10;99.90;;;;;;4947983;29;20047;-66
2023/12/17 04:29:09;;;;;;;39.40;31.20;;;16.20;99.90;;;;;;4948194;29;20049;-65
2023/12/17 04:31:35;;;;;;;37.58;32.50;;;16.20;99.90;;;;;;4948635;29;20151;-65
2023/12/17 04:34:00;;;;;;;40.35;36.03;;;16.00;99.90;;;;;;4947944;29;20058;-65
2023/12/17 04:36:26;;;;;;;41.05;34.50;;;15.90;99.90;;;;;;4948061;29;20043;-65
2023/12/17 04:38:51;;;;;;;38.20;34.17;;;16.10;99.90;;;;;;4946576;28;20055;-66
2023/12/17 04:41:18;;;;;;;41.92;34.17;;;16.50;99.90;;;;;;4948778;29;20051;-66
2023/12/17 04:43:44;;;;;;;41.83;34.92;;;16.80;99.90;;;;;;4947496;29;20043;-66
2023/12/17 04:46:10;;;;;;;38.72;33.20;;;15.60;99.90;;;;;;4947496;29;20066;-66
2023/12/17 04:48:36;;;;;;;40.15;33.10;;;15.70;99.90;;;;;;4946884;29;20039;-67
2023/12/17 04:51:01;;;;;;;38.50;33.50;;;16.10;99.90;;;;;;4947117;28;20118;-66
2023/12/17 04:53:27;;;;;;;47.15;34.70;;;16.00;99.90;;;;;;4946939;29;20035;-65
2023/12/17 04:55:52;;;;;;;41.83;34.15;;;16.20;99.90;;;;;;4947849;29;20050;-65
2023/12/17 04:58:18;;;;;;;45.80;33.35;;;15.90;99.90;;;;;;4947724;29;20054;-66
2023/12/17 05:00:44;;;;;;;38.10;33.83;;;16.10;99.90;;;;;;4955968;28;20043;-66
2023/12/17 05:03:09;;;;;;;44.72;34.67;;;16.00;99.90;;;;;;4947398;29;20043;-68
2023/12/17 05:05:35;;;;;;;43.33;33.75;;;15.40;99.90;;;;;;4947824;29;20046;-65
2023/12/17 05:08:01;;;;;;;42.90;34.63;;;15.80;99.90;;;;;;4948727;28;20659;-65
2023/12/17 05:10:27;;;;;;;42.05;34.17;;;15.80;99.90;;;;;;4931441;29;20078;-65
2023/12/17 05:12:55;;;;;;;38.28;33.83;;;15.30;99.90;;;;;;4948692;29;20039;-66
2023/12/17 05:15:22;;;;;;;44.10;33.20;;;16.30;99.90;;;;;;4947268;29;20106;-67
2023/12/17 05:17:48;;;;;;;43.63;33.92;;;15.80;99.90;;;;;;4947576;29;20118;-66
2023/12/17 05:20:13;;;;;;;49.97;34.15;;;15.60;99.90;;;;;;4947316;29;20043;-66
2023/12/17 05:22:39;;;;;;;44.72;37.35;;;15.20;99.90;;;;;;4948944;29;20157;-65
2023/12/17 05:25:05;;;;;;;44.92;35.65;;;17.20;99.90;;;;;;4946970;29;20504;-66
2023/12/17 05:27:31;;;;;;;51.47;35.58;;;15.50;99.90;;;;;;4946878;29;20055;-65
2023/12/17 05:29:56;;;;;;;47.13;36.58;;;16.10;99.90;;;;;;4946924;29;20494;-67
2023/12/17 05:32:22;;;;;;;46.40;36.95;;;16.00;99.90;;;;;;4947311;29;20039;-65
2023/12/17 05:34:47;;;;;;;46.47;33.50;;;16.30;99.90;;;;;;4946917;29;20130;-65
2023/12/17 05:37:13;;;;;;;42.15;33.85;;;16.30;99.90;;;;;;4947093;29;20572;-66
2023/12/17 05:39:38;;;;;;;42.65;33.97;;;15.90;99.90;;;;;;4946027;29;20712;-66
2023/12/17 05:42:04;;;;;;;44.63;35.63;;;15.70;99.90;;;;;;4947205;29;20043;-65
2023/12/17 05:44:30;;;;;;;46.80;36.20;;;15.60;99.90;;;;;;4946950;29;20094;-65
2023/12/17 05:46:55;;;;;;;44.42;34.97;;;16.40;99.90;;;;;;4947275;28;20087;-67
2023/12/17 05:49:21;;;;;;;50.22;36.80;;;15.20;99.90;;;;;;4945769;28;20429;-66
2023/12/17 05:51:47;;;;;;;52.03;35.72;;;16.10;99.90;;;;;;4946676;29;20146;-67
2023/12/17 05:54:13;;;;;;;48.78;37.20;;;15.50;99.90;;;;;;4946834;29;20043;-65
2023/12/17 05:56:42;;;;;;;49.40;36.53;;;16.60;99.90;;;;;;4946049;29;20165;-67
2023/12/17 05:59:08;;;;;;;50.83;37.92;;;16.40;99.90;;;;;;4946652;29;20374;-67
2023/12/17 06:01:34;;;;;;;47.03;36.95;;;16.50;99.90;;;;;;4946669;29;20065;-67
2023/12/17 06:03:59;;;;;;;44.00;37.03;;;15.70;99.90;;;;;;4947049;29;20050;-66
2023/12/17 06:06:26;;;;;;;47.75;38.83;;;16.50;99.90;;;;;;4947357;29;20043;-65
2023/12/17 06:08:52;;;;;;;46.03;37.40;;;15.50;99.90;;;;;;4948269;28;20055;-66
2023/12/17 06:11:17;;;;;;;46.83;37.03;;;15.10;99.90;;;;;;4948383;29;20058;-66
2023/12/17 06:13:43;;;;;;;48.45;37.00;;;15.40;99.90;;;;;;4946443;29;20054;-66
2023/12/17 06:16:09;;;;;;;51.90;38.08;;;15.40;99.90;;;;;;4946563;29;20050;-66
2023/12/17 06:18:35;;;;;;;48.70;37.50;;;15.10;99.90;;;;;;4946663;29;20486;-67
2023/12/17 06:21:01;;;;;;;44.03;36.63;;;15.30;99.90;;;;;;4946595;29;20093;-66
2023/12/17 06:23:27;;;;;;;53.42;37.05;;;16.30;99.90;;;;;;4945429;29;20413;-66
2023/12/17 06:25:53;;;;;;;48.05;37.22;;;16.30;99.90;;;;;;4947185;29;20043;-66
2023/12/17 06:28:20;;;;;;;55.75;38.70;;;15.10;99.90;;;;;;4945874;28;20050;-66
2023/12/17 06:30:46;;;;;;;47.45;36.55;;;16.70;99.90;;;;;;4946775;29;20047;-65
2023/12/17 06:33:12;;;;;;;53.30;37.22;;;16.90;99.90;;;;;;4940663;29;20066;-67
2023/12/17 06:35:38;;;;;;;55.08;36.40;;;16.00;99.90;;;;;;4946401;29;20489;-66
2023/12/17 06:38:03;;;;;;;51.53;36.97;;;16.80;99.90;;;;;;4947291;28;20043;-66
2023/12/17 06:40:29;;;;;;;50.08;36.08;;;16.90;99.90;;;;;;4946708;29;20054;-65
2023/12/17 06:42:54;;;;;;;44.75;35.65;;;16.30;99.90;;;;;;4948268;29;20050;-66
2023/12/17 06:45:20;;;;;;;49.53;36.67;;;16.60;99.90;;;;;;4930745;29;20051;-65
2023/12/17 06:47:46;;;;;;;48.90;37.38;;;15.30;99.90;;;;;;4941837;29;20101;-70
2023/12/17 06:50:12;;;;;;;53.50;37.28;;;15.20;99.90;;;;;;4944334;28;20485;-70
2023/12/17 06:52:38;;;;;;;45.35;36.55;;;15.30;99.90;;;;;;4946872;29;20502;-70
2023/12/17 06:55:06;;;;;;;48.85;34.67;;;16.70;99.90;;;;;;4945758;29;20150;-70
2023/12/17 06:57:31;;;;;;;52.15;36.75;;;16.20;99.90;;;;;;4944916;29;20410;-70
2023/12/17 06:59:57;;;;;;;59.05;37.45;;;16.50;99.90;;;;;;4945456;29;20045;-69
2023/12/17 07:02:22;;;;;;;50.50;35.95;;;16.50;99.90;;;;;;4946912;28;20157;-70
2023/12/17 07:04:48;;;;;;;51.22;35.95;;;16.20;99.90;;;;;;4947800;29;20047;-69
2023/12/17 07:07:13;;;;;;;51.72;37.25;;;15.30;99.90;;;;;;4948795;29;20039;-71
2023/12/17 07:09:39;;;;;;;48.97;35.00;;;15.30;99.90;;;;;;4947738;28;20134;-70
2023/12/17 07:12:05;;;;;;;48.47;35.65;;;15.30;99.90;;;;;;4948141;28;20039;-70
2023/12/17 07:14:31;;;;;;;49.75;35.63;;;15.60;99.90;;;;;;4947036;28;20077;-70
2023/12/17 07:16:56;;;;;;;49.47;38.22;;;15.00;99.90;;;;;;4949363;29;20106;-70
2023/12/17 07:19:22;;;;;;;52.65;40.47;;;16.30;99.90;;;;;;4949535;29;20043;-70
2023/12/17 07:21:47;;;;;;;52.97;40.88;;;15.30;99.90;;;;;;4947483;29;20043;-70
2023/12/17 07:24:13;;;;;;;42.30;36.08;;;16.20;99.90;;;;;;4948444;29;20485;-70
2023/12/17 07:26:38;;;;;;;40.75;35.03;;;16.80;99.90;;;;;;4947284;28;20502;-70
2023/12/17 07:29:04;;;;;;;54.00;37.90;;;16.10;99.90;;;;;;4947272;29;20409;-70
2023/12/17 07:31:29;;;;;;;47.65;37.47;;;16.50;99.90;;;;;;4947141;29;20504;-70
2023/12/17 07:33:55;;;;;;;46.58;37.00;;;16.70;99.90;;;;;;4946020;29;20039;-70
2023/12/17 07:36:21;;;;;;;42.70;38.17;;;15.20;99.90;;;;;;4946635;29;20047;-70
2023/12/17 07:38:47;;;;;;;46.25;38.55;;;15.40;99.90;;;;;;4946058;29;20087;-70
2023/12/17 07:41:13;;;;;;;43.65;38.20;;;15.40;99.90;;;;;;4947399;29;20051;-69
2023/12/17 07:43:38;;;;;;;49.97;41.20;;;15.10;99.90;;;;;;4947321;29;20043;-70
2023/12/17 07:46:04;;;;;;;48.50;38.28;;;15.30;99.90;;;;;;4948081;29;20095;-70
2023/12/17 07:48:29;;;;;;;42.53;37.92;;;15.60;99.90;;;;;;4946770;29;20405;-70
2023/12/17 07:50:56;;;;;;;54.25;40.65;;;16.40;99.90;;;;;;4931510;29;20057;-70
2023/12/17 07:53:22;;;;;;;52.25;41.75;;;15.10;99.90;;;;;;4948525;29;20047;-70
2023/12/17 07:55:48;;;;;;;59.17;43.80;;;15.50;99.90;;;;;;4948451;29;20508;-71
2023/12/17 07:58:14;;;;;;;50.83;42.63;;;17.10;99.90;;;;;;4948018;29;20043;-66
2023/12/17 08:00:39;;;;;;;53.35;45.03;;;15.80;99.90;;;;;;4947976;29;20039;-66
2023/12/17 08:03:05;;;;;;;53.70;46.55;;;15.60;99.90;;;;;;4948666;29;20049;-67
2023/12/17 08:05:31;;;;;;;54.13;43.78;;;16.80;99.90;;;;;;4949398;29;20571;-66
2023/12/17 08:07:56;;;;;;;49.35;44.08;;;16.20;99.90;;;;;;4948788;29;20051;-67
2023/12/17 08:10:22;;;;;;;47.33;42.20;;;16.60;99.90;;;;;;4938935;29;20043;-66
2023/12/17 08:12:47;;;;;;;53.42;43.38;;;16.50;99.90;;;;;;4948432;28;20090;-68
2023/12/17 08:15:14;;;;;;;44.28;37.00;;;16.50;99.90;;;;;;4948425;29;20043;-65
2023/12/17 08:17:40;;;;;;;48.10;36.75;;;15.40;99.90;;;;;;4948298;28;20531;-66
2023/12/17 08:20:07;;;;;;;44.85;37.33;;;15.50;99.90;;;;;;4947820;29;20142;-67
2023/12/17 08:22:32;;;;;;;43.42;35.72;;;16.00;99.90;;;;;;4947873;29;20069;-67
2023/12/17 08:24:58;;;;;;;47.25;37.90;;;15.30;99.90;;;;;;4949508;29;20458;-67
2023/12/17 08:27:23;;;;;;;45.65;36.83;;;15.10;99.90;;;;;;4946614;29;20133;-65
2023/12/17 08:29:50;;;;;;;52.15;37.55;;;15.90;99.90;;;;;;4947944;29;20049;-66
2023/12/17 08:32:16;;;;;;;52.47;38.20;;;15.40;99.90;;;;;;4948405;29;20047;-67
2023/12/17 08:34:42;;;;;;;39.88;32.35;;;16.80;99.90;;;;;;4948866;29;20039;-67
2023/12/17 08:37:08;;;;;;;47.65;33.45;;;17.10;99.90;;;;;;4947536;29;20101;-65
2023/12/17 08:39:33;;;;;;;46.40;34.25;;;16.40;99.90;;;;;;4946847;29;20043;-67
2023/12/17 08:41:59;;;;;;;47.15;34.30;;;16.10;99.90;;;;;;4945458;29;20039;-66
2023/12/17 08:44:25;;;;;;;48.33;36.50;;;16.20;99.90;;;;;;4948906;29;20525;-67
2023/12/17 08:46:51;;;;;;;50.92;34.20;;;16.10;99.90;;;;;;4947358;29;20059;-66
2023/12/17 08:49:17;;;;;;;47.30;35.60;;;15.30;99.90;;;;;;4946011;28;20051;-67
2023/12/17 08:51:43;;;;;;;47.25;35.88;;;16.40;99.90;;;;;;4962761;28;20102;-66
2023/12/17 08:54:12;;;;;;;48.42;35.90;;;16.50;99.90;;;;;;4946465;28;20454;-66
2023/12/17 08:56:39;;;;;;;58.00;35.25;;;15.40;99.90;;;;;;4944339;28;20067;-65
2023/12/17 08:59:05;;;;;;;54.92;37.22;;;15.80;99.90;;;;;;4929682;29;20079;-67
2023/12/17 09:01:30;;;;;;;62.40;36.60;;;16.90;99.90;;;;;;4945766;29;20505;-67
2023/12/17 09:03:56;;;;;;;48.97;33.85;;;16.80;99.90;;;;;;4946434;29;20047;-67
2023/12/17 09:06:22;;;;;;;54.22;40.03;;;16.20;99.90;;;;;;4946786;29;20501;-66
2023/12/17 09:08:47;;;;;;;51.22;33.05;;;16.30;99.90;;;;;;4931473;29;20059;-70
2023/12/17 09:11:13;;;;;;;45.75;32.40;;;15.90;99.90;;;;;;4946891;29;20039;-71
2023/12/17 09:13:39;;;;;;;66.03;35.90;;;16.20;99.90;;;;;;4947933;29;20523;-70
2023/12/17 09:16:05;;;;;;;58.08;35.58;;;16.70;99.90;;;;;;4946591;29;20053;-71
2023/12/17 09:18:31;;;;;;;51.45;38.10;;;15.90;99.90;;;;;;4945989;29;20139;-71
2023/12/17 09:20:56;;;;;;;60.33;34.55;;;17.50;99.90;;;;;;4947355;29;20133;-70
2023/12/17 09:23:22;;;;;;;57.97;38.70;;;17.00;99.90;;;;;;4930771;29;20047;-70
2023/12/17 09:25:48;;;;;;;67.00;36.92;;;17.40;99.90;;;;;;4946107;28;20054;-71
2023/12/17 09:28:14;;;;;;;61.63;34.95;;;17.30;99.90;;;;;;4945881;29;20047;-71
2023/12/17 09:30:39;;;;;;;53.88;34.35;;;17.20;99.90;;;;;;4946251;29;20426;-71
2023/12/17 09:33:05;;;;;;;53.58;33.95;;;16.60;99.90;;;;;;4946497;29;20498;-71
2023/12/17 09:35:31;;;;;;;53.72;36.10;;;16.70;99.90;;;;;;4944727;29;20094;-71
2023/12/17 09:37:58;;;;;;;60.35;34.40;;;17.00;99.90;;;;;;4945764;29;20133;-71
2023/12/17 09:40:24;;;;;;;58.45;34.60;;;15.60;99.90;;;;;;4943519;28;20039;-72
2023/12/17 09:42:52;;;;;;;55.33;36.53;;;16.80;99.90;;;;;;4948069;29;20388;-71
2023/12/17 09:45:18;;;;;;;61.70;37.47;;;16.20;99.90;;;;;;4946522;29;20867;-71
2023/12/17 09:47:44;;;;;;;51.10;35.05;;;16.10;99.90;;;;;;4930847;29;20058;-71
2023/12/17 09:50:10;;;;;;;67.82;37.90;;;17.10;99.90;;;;;;4947170;28;20053;-71
2023/12/17 09:52:41;;;;;;;59.92;36.45;;;17.20;99.90;;;;;;4931146;29;20043;-70
2023/12/17 09:55:07;;;;;;;58.08;35.97;;;17.40;99.90;;;;;;4946242;29;20046;-71
2023/12/17 09:57:32;;;;;;;59.30;35.55;;;15.90;99.90;;;;;;4946564;29;20129;-71
2023/12/17 09:59:58;;;;;;;50.13;35.97;;;16.50;99.90;;;;;;4946211;29;20481;-71
2023/12/17 10:02:23;;;;;;;54.67;34.63;;;15.70;99.90;;;;;;4946223;29;20047;-71
2023/12/17 10:04:49;;;;;;;64.07;35.97;;;16.20;99.90;;;;;;4946547;29;20046;-72
2023/12/17 10:07:14;;;;;;;59.42;36.80;;;17.00;99.90;;;;;;4943315;29;20047;-71
2023/12/17 10:09:40;;;;;;;60.60;36.00;;;17.30;99.90;;;;;;4945393;29;20873;-71
2023/12/17 10:12:06;;;;;;;56.65;36.13;;;17.10;99.90;;;;;;4946679;29;20509;-71
2023/12/17 10:14:32;;;;;;;52.45;33.58;;;17.30;99.90;;;;;;4930037;29;20054;-70
2023/12/17 10:16:58;;;;;;;45.65;32.60;;;16.30;99.90;;;;;;4945024;29;20497;-70
2023/12/17 10:19:24;;;;;;;53.00;34.40;;;15.90;99.90;;;;;;4952036;28;20043;-71
2023/12/17 10:21:50;;;;;;;55.30;32.85;;;16.90;99.90;;;;;;4945706;29;20516;-72
2023/12/17 10:24:16;;;;;;;51.95;34.58;;;17.10;99.90;;;;;;4944792;29;20035;-70
2023/12/17 10:26:46;;;;;;;54.03;36.17;;;16.40;99.90;;;;;;4945306;29;20227;-71
2023/12/17 10:29:22;;;;;;;52.42;35.50;;;16.50;99.90;;;;;;4939285;29;20122;-71
2023/12/17 10:31:48;;;;;;;52.65;35.40;;;16.20;99.90;;;;;;4944706;29;20102;-71
2023/12/17 10:34:19;;;;;;;58.67;36.63;;;16.40;99.90;;;;;;4941987;29;20474;-71
2023/12/17 10:36:50;;;;;;;57.30;36.50;;;17.20;99.90;;;;;;4946698;28;20074;-71
2023/12/17 10:39:17;;;;;;;54.05;36.15;;;15.90;99.90;;;;;;4949329;29;20062;-71
2023/12/17 10:41:43;;;;;;;68.97;37.80;;;17.00;99.90;;;;;;4950817;29;20054;-71
2023/12/17 10:44:14;;;;;;;62.58;36.47;;;16.10;99.90;;;;;;4947415;29;20449;-72
2023/12/17 10:46:45;;;;;;;62.97;36.80;;;15.90;99.90;;;;;;4948704;29;20098;-72
2023/12/17 10:49:11;;;;;;;60.03;39.13;;;17.30;99.90;;;;;;4933157;29;20131;-71
2023/12/17 10:51:43;;;;;;;51.83;33.13;;;16.90;99.90;;;;;;4949230;29;20082;-71
2023/12/17 10:54:11;;;;;;;51.10;35.50;;;16.60;99.90;;;;;;4947036;29;20500;-71
2023/12/17 10:56:46;;;;;;;61.50;35.47;;;17.30;99.90;;;;;;4946096;29;20113;-71
2023/12/17 10:59:14;;;;;;;54.30;35.63;;;16.30;99.90;;;;;;4936243;29;20126;-71
2023/12/17 11:01:42;;;;;;;47.72;33.13;;;17.10;99.90;;;;;;4948670;29;20051;-71
2023/12/17 11:04:08;;;;;;;58.13;36.00;;;17.20;99.90;;;;;;4949012;29;20059;-71
2023/12/17 11:06:34;;;;;;;54.30;34.97;;;17.10;99.90;;;;;;4948191;29;20417;-71
2023/12/17 11:09:00;;;;;;;58.25;34.80;;;16.20;99.90;;;;;;4948597;29;20417;-71
2023/12/17 11:11:26;;;;;;;46.22;36.30;;;16.40;99.90;;;;;;4949140;29;20046;-71
2023/12/17 11:13:53;;;;;;;50.75;33.13;;;16.40;99.90;;;;;;4950093;29;20047;-72
2023/12/17 11:16:28;;;;;;;63.15;33.53;;;16.20;99.90;;;;;;4947300;29;20043;-71
2023/12/17 11:18:58;;;;;;;61.40;34.63;;;16.80;99.90;;;;;;4946297;29;20057;-71
2023/12/17 11:21:23;;;;;;;53.83;34.47;;;16.10;99.90;;;;;;4949099;29;20320;-71
2023/12/17 11:23:51;;;;;;;55.80;35.92;;;16.30;99.90;;;;;;4950002;29;20122;-71
2023/12/17 11:26:18;;;;;;;54.95;33.45;;;16.10;99.90;;;;;;4948175;29;20047;-72
2023/12/17 11:28:44;;;;;;;56.78;34.78;;;17.00;99.90;;;;;;4945540;29;20753;-71
2023/12/17 11:31:11;;;;;;;53.00;35.78;;;17.10;99.90;;;;;;4948759;29;20101;-71
2023/12/17 11:33:38;;;;;;;67.90;35.65;;;16.40;99.90;;;;;;4944799;29;20047;-71
2023/12/17 11:36:10;;;;;;;55.95;34.25;;;16.60;99.90;;;;;;4948656;29;20048;-72
2023/12/17 11:38:36;;;;;;;66.97;35.58;;;16.30;99.90;;;;;;4948565;29;20082;-71
2023/12/17 11:41:03;;;;;;;55.08;37.55;;;16.90;99.90;;;;;;4950694;28;20050;-72
2023/12/17 11:43:29;;;;;;;49.45;32.53;;;16.50;99.90;;;;;;4944792;29;20075;-72
2023/12/17 11:45:56;;;;;;;55.83;35.72;;;16.50;99.90;;;;;;4942721;29;20039;-70
2023/12/17 11:48:22;;;;;;;49.15;33.83;;;17.50;99.90;;;;;;4947996;28;20118;-72
2023/12/17 11:50:48;;;;;;;51.88;33.97;;;17.30;99.90;;;;;;4949851;28;20051;-71
2023/12/17 11:53:19;;;;;;;47.97;34.30;;;16.60;99.90;;;;;;4946785;29;20838;-71
2023/12/17 11:55:52;;;;;;;47.50;32.35;;;16.90;99.90;;;;;;4947392;29;20051;-71
2023/12/17 11:58:19;;;;;;;48.78;33.00;;;18.20;99.90;;;;;;4948200;29;20510;-70
2023/12/17 12:01:04;;;;;;;48.15;33.55;;;16.90;99.90;;;;;;4945389;29;20062;-71
2023/12/17 12:03:30;;;;;;;52.38;34.30;;;17.10;99.90;;;;;;4945927;29;20543;-71
2023/12/17 12:06:03;;;;;;;48.35;32.95;;;16.80;99.90;;;;;;4948103;28;20047;-71
2023/12/17 12:08:46;;;;;;;51.38;36.85;;;17.70;99.90;;;;;;4964433;28;20529;-72
2023/12/17 12:11:17;;;;;;;48.35;35.10;;;17.70;99.90;;;;;;4948619;29;20035;-71
2023/12/17 12:13:45;;;;;;;42.42;32.78;;;16.90;99.90;;;;;;4947639;29;20039;-71
2023/12/17 12:16:12;;;;;;;45.45;30.90;;;16.70;99.90;;;;;;4948249;29;20060;-72
2023/12/17 12:18:38;;;;;;;51.22;34.83;;;16.70;99.90;;;;;;4948347;29;20051;-72
2023/12/17 12:21:18;;;;;;;50.47;33.78;;;17.50;99.90;;;;;;4948703;29;20058;-72
2023/12/17 12:23:55;;;;;;;54.60;33.92;;;17.50;99.90;;;;;;4946848;29;20123;-72